Weather History for KBWP - April, 2014

Change the Weather History Date:

Wednesday, April 30, 2014

  Actual Average (KFFM) Record (KFFM)
Temperature  
Mean Temperature 38 °F -  
Max Temperature 41 °F 60 °F 88 °F (1952)
Min Temperature 35 °F 37 °F 15 °F (1966)
Degree Days  
Heating Degree Days 27    
Moisture  
Dew Point 34 °F    
Average Humidity 82    
Maximum Humidity 93    
Minimum Humidity 70    
Precipitation  
Precipitation 0.02 in - - ()
Sea Level Pressure  
Sea Level Pressure 29.93 in    
Wind  
Wind Speed 17 mph (North)    
Max Wind Speed 25 mph    
Max Gust Speed 33 mph    
Visibility 10 miles    
Events      
Averages and records for this station are not official NWS values.
T = Trace of Precipitation, MM = Missing Value Source: NWS Daily Summary

Daily Weather History Graph

Daily Weather History Graph

Search for Another Location

Airport or City:

Trip Planner

Search our weather history database for the weather conditions in past years. The results will help you decide how hot, cold, wet, or windy it might be!

Date:

Astronomy

Apr. 30, 2014 Rise Set
Actual Time 6:14 AM CDT 8:33 PM CDT
Civil Twilight 5:41 AM CDT 9:07 PM CDT
Nautical Twilight 4:59 AM CDT 9:48 PM CDT
Astronomical Twilight 4:13 AM CDT 10:35 PM CDT
Moon 7:14 AM CDT (4/30) 10:16 PM CDT (4/30)
Length of Visible Light 15h 26m
Length of Day
14h 19m
New Moon, 2% of the Moon is Illuminated
Apr 30
New Moon
May 6
First Quarter
May 14
Full
May 21
Last Quarter
May 28
New

Hourly Weather History & Observations

Time (CDT) Temp. Windchill Dew Point Humidity Pressure Visibility Wind Dir Wind Speed Gust Speed Precip Events Conditions
12:10 AM 41.0 °F 32.5 °F 32.0 °F 70% 29.91 in 10.0 mi North 17.3 mph 24.2 mph N/A   Clear
12:30 AM 41.0 °F 33.1 °F 32.0 °F 70% 29.91 in 10.0 mi North 15.0 mph 19.6 mph N/A   Scattered Clouds
12:50 AM 41.0 °F 34.3 °F 32.0 °F 70% 29.92 in 10.0 mi North 11.5 mph - N/A   Mostly Cloudy
1:10 AM 41.0 °F 34.3 °F 32.0 °F 70% 29.92 in 10.0 mi North 11.5 mph - N/A   Overcast
1:30 AM 41.0 °F 34.3 °F 32.0 °F 70% 29.92 in 10.0 mi North 11.5 mph 17.3 mph N/A   Overcast
1:50 AM 41.0 °F 33.9 °F 32.0 °F 70% 29.92 in 10.0 mi North 12.7 mph - N/A   Overcast
2:10 AM 41.0 °F 33.9 °F 32.0 °F 70% 29.92 in 10.0 mi North 12.7 mph 18.4 mph N/A   Overcast
2:30 AM 39.2 °F 31.2 °F 32.0 °F 75% 29.92 in 10.0 mi North 13.8 mph - N/A   Overcast
2:50 AM 39.2 °F 31.2 °F 32.0 °F 75% 29.92 in 10.0 mi North 13.8 mph - N/A   Overcast
3:10 AM 37.4 °F 28.9 °F 33.8 °F 87% 29.91 in 10.0 mi North 13.8 mph 17.3 mph N/A   Overcast
3:30 AM 37.4 °F 28.9 °F 33.8 °F 87% 29.92 in 10.0 mi North 13.8 mph 17.3 mph N/A   Overcast
3:50 AM 37.4 °F 28.9 °F 33.8 °F 87% 29.92 in 10.0 mi North 13.8 mph - N/A   Overcast
4:10 AM 35.6 °F 25.5 °F 33.8 °F 93% 29.93 in 10.0 mi North 17.3 mph 20.7 mph N/A   Overcast
4:30 AM 35.6 °F 25.2 °F 33.8 °F 93% 29.92 in 10.0 mi North 18.4 mph 21.9 mph 0.01 in   Overcast
4:50 AM 35.6 °F 26.2 °F 33.8 °F 93% 29.92 in 10.0 mi North 15.0 mph 18.4 mph 0.01 in   Overcast
5:10 AM 35.6 °F 26.6 °F 33.8 °F 93% 29.92 in 10.0 mi North 13.8 mph 21.9 mph N/A   Overcast
5:30 AM 35.6 °F 25.5 °F 33.8 °F 93% 29.93 in 10.0 mi North 17.3 mph 21.9 mph N/A   Overcast
5:50 AM 35.6 °F 25.5 °F 33.8 °F 93% 29.92 in 10.0 mi North 17.3 mph - N/A   Overcast
6:10 AM 35.6 °F 25.2 °F 32.0 °F 87% 29.93 in 10.0 mi North 18.4 mph 25.3 mph N/A   Overcast
6:30 AM 35.6 °F 24.8 °F 32.0 °F 87% 29.93 in 10.0 mi North 19.6 mph 23.0 mph N/A   Overcast
6:50 AM 35.6 °F 27.1 °F 33.8 °F 93% 29.93 in 10.0 mi North 12.7 mph 23.0 mph 0.01 in   Overcast
7:10 AM 35.6 °F 25.9 °F 33.8 °F 93% 29.93 in 10.0 mi North 16.1 mph 23.0 mph N/A   Overcast
7:30 AM 35.6 °F 25.2 °F 33.8 °F 93% 29.94 in 10.0 mi North 18.4 mph 24.2 mph N/A   Overcast
7:50 AM 35.6 °F 24.5 °F 33.8 °F 93% 29.93 in 10.0 mi North 20.7 mph 26.5 mph N/A   Overcast
8:10 AM 35.6 °F 25.5 °F 33.8 °F 93% 29.94 in 10.0 mi North 17.3 mph 24.2 mph N/A   Overcast
8:30 AM 35.6 °F 24.8 °F 33.8 °F 93% 29.94 in 10.0 mi North 19.6 mph 24.2 mph N/A   Overcast
8:50 AM 37.4 °F 26.9 °F 33.8 °F 87% 29.94 in 10.0 mi North 20.7 mph 26.5 mph N/A   Overcast
9:10 AM 37.4 °F 26.6 °F 33.8 °F 87% 29.94 in 10.0 mi North 21.9 mph 27.6 mph N/A   Overcast
9:30 AM 37.4 °F 28.2 °F 33.8 °F 87% 29.94 in 10.0 mi North 16.1 mph 26.5 mph N/A   Overcast
9:50 AM 37.4 °F 26.6 °F 33.8 °F 87% 29.93 in 10.0 mi North 21.9 mph 27.6 mph N/A   Overcast
10:10 AM 37.4 °F 26.6 °F 33.8 °F 87% 29.94 in 10.0 mi North 21.9 mph 29.9 mph N/A   Overcast
10:30 AM 39.2 °F 29.0 °F 33.8 °F 81% 29.93 in 10.0 mi North 21.9 mph 29.9 mph N/A   Overcast
10:50 AM 37.4 °F 26.9 °F 33.8 °F 87% 29.93 in 10.0 mi North 20.7 mph 29.9 mph N/A   Overcast
11:10 AM 39.2 °F 29.8 °F 33.8 °F 81% 29.93 in 10.0 mi North 18.4 mph 28.8 mph N/A   Overcast
11:30 AM 41.0 °F 31.4 °F 33.8 °F 76% 29.93 in 10.0 mi North 21.9 mph 31.1 mph N/A   Overcast
11:50 AM 41.0 °F 31.1 °F 33.8 °F 76% 29.93 in 10.0 mi North 23.0 mph 28.8 mph N/A   Overcast
12:10 PM 41.0 °F 30.9 °F 33.8 °F 76% 29.92 in 10.0 mi North 24.2 mph 32.2 mph N/A   Overcast
12:50 PM 41.0 °F 31.4 °F 33.8 °F 76% 29.92 in 10.0 mi North 21.9 mph 28.8 mph N/A   Overcast
1:10 PM 41.0 °F 30.7 °F 33.8 °F 76% 29.92 in 10.0 mi North 25.3 mph 29.9 mph N/A   Overcast
1:30 PM 41.0 °F 31.1 °F 33.8 °F 76% 29.92 in 10.0 mi North 23.0 mph 29.9 mph N/A   Overcast
1:50 PM 41.0 °F 31.6 °F 33.8 °F 76% 29.92 in 10.0 mi North 20.7 mph 33.4 mph N/A   Overcast
2:10 PM 41.0 °F 31.1 °F 33.8 °F 76% 29.92 in 10.0 mi North 23.0 mph 29.9 mph N/A   Overcast
2:30 PM 41.0 °F 31.9 °F 33.8 °F 76% 29.92 in 10.0 mi North 19.6 mph 31.1 mph N/A   Overcast
2:50 PM 41.0 °F 31.4 °F 33.8 °F 76% 29.92 in 10.0 mi North 21.9 mph 29.9 mph N/A   Overcast
3:10 PM 41.0 °F 31.6 °F 33.8 °F 76% 29.92 in 10.0 mi North 20.7 mph 27.6 mph N/A   Overcast
3:30 PM 41.0 °F 32.2 °F 33.8 °F 76% 29.93 in 10.0 mi North 18.4 mph 26.5 mph N/A   Overcast
3:50 PM 41.0 °F 31.6 °F 33.8 °F 76% 29.93 in 10.0 mi North 20.7 mph 29.9 mph N/A   Overcast
4:10 PM 41.0 °F 32.5 °F 35.6 °F 81% 29.93 in 10.0 mi North 17.3 mph 25.3 mph N/A   Overcast
4:30 PM 41.0 °F 30.7 °F 35.6 °F 81% 29.92 in 10.0 mi North 25.3 mph 32.2 mph N/A   Overcast
4:50 PM 41.0 °F 30.9 °F 35.6 °F 81% 29.92 in 10.0 mi North 24.2 mph 29.9 mph N/A   Overcast
5:10 PM 41.0 °F 31.4 °F 35.6 °F 81% 29.92 in 10.0 mi North 21.9 mph 32.2 mph N/A   Overcast
5:30 PM 41.0 °F 31.6 °F 35.6 °F 81% 29.93 in 10.0 mi North 20.7 mph 31.1 mph N/A   Overcast
5:50 PM 41.0 °F 31.9 °F 35.6 °F 81% 29.93 in 10.0 mi North 19.6 mph 28.8 mph N/A   Overcast
6:10 PM 41.0 °F 31.4 °F 35.6 °F 81% 29.93 in 10.0 mi North 21.9 mph 32.2 mph N/A   Overcast
6:30 PM 41.0 °F 32.2 °F 35.6 °F 81% 29.93 in 10.0 mi North 18.4 mph 26.5 mph N/A   Overcast
6:50 PM 41.0 °F 31.6 °F 35.6 °F 81% 29.93 in 10.0 mi NNW 20.7 mph 26.5 mph N/A   Overcast
7:10 PM 41.0 °F 31.9 °F 35.6 °F 81% 29.93 in 10.0 mi NNW 19.6 mph 28.8 mph N/A   Overcast
7:30 PM 41.0 °F 32.2 °F 35.6 °F 81% 29.93 in 10.0 mi NNW 18.4 mph 29.9 mph N/A   Overcast
7:50 PM 41.0 °F 32.2 °F 35.6 °F 81% 29.93 in 10.0 mi North 18.4 mph 23.0 mph N/A   Overcast
8:10 PM 41.0 °F 33.1 °F 33.8 °F 76% 29.93 in 10.0 mi North 15.0 mph 25.3 mph N/A   Overcast
8:30 PM 41.0 °F 32.2 °F 33.8 °F 76% 29.93 in 10.0 mi NNW 18.4 mph 24.2 mph N/A   Overcast
8:50 PM 39.2 °F 29.8 °F 35.6 °F 87% 29.93 in 10.0 mi NNW 18.4 mph 24.2 mph N/A   Overcast
9:10 PM 39.2 °F 30.2 °F 35.6 °F 87% 29.92 in 10.0 mi North 17.3 mph 28.8 mph N/A   Overcast
9:30 PM 39.2 °F 30.5 °F 35.6 °F 87% 29.93 in 10.0 mi North 16.1 mph 23.0 mph N/A   Overcast
9:50 PM 39.2 °F 29.6 °F 35.6 °F 87% 29.94 in 10.0 mi North 19.6 mph 29.9 mph N/A   Overcast
10:10 PM 39.2 °F 29.3 °F 35.6 °F 87% 29.94 in 10.0 mi North 20.7 mph 26.5 mph N/A   Overcast
10:30 PM 39.2 °F 29.8 °F 35.6 °F 87% 29.93 in 10.0 mi North 18.4 mph 28.8 mph N/A   Overcast
10:50 PM 39.2 °F 29.8 °F 33.8 °F 81% 29.92 in 10.0 mi North 18.4 mph 26.5 mph N/A   Overcast
11:10 PM 39.2 °F 29.8 °F 35.6 °F 87% 29.92 in 10.0 mi North 18.4 mph 28.8 mph N/A   Overcast
11:30 PM 39.2 °F 29.8 °F 35.6 °F 87% 29.91 in 10.0 mi North 18.4 mph 25.3 mph N/A   Overcast
11:50 PM 39.2 °F 30.2 °F 35.6 °F 87% 29.91 in 10.0 mi North 17.3 mph - N/A   Overcast